sensor_id;sensor_type;location;lat;lon;timestamp;P1;durP1;ratioP1;P2;durP2;ratioP2
7557;SDS011;3820;51.098;13.716;2023-02-10T00:00:14;29.90;;;17.33;;
7557;SDS011;3820;51.098;13.716;2023-02-10T00:02:41;32.63;;;18.50;;
7557;SDS011;3820;51.098;13.716;2023-02-10T00:05:07;30.90;;;17.60;;
7557;SDS011;3820;51.098;13.716;2023-02-10T00:07:34;34.67;;;19.07;;
7557;SDS011;3820;51.098;13.716;2023-02-10T00:10:00;31.47;;;18.17;;
7557;SDS011;3820;51.098;13.716;2023-02-10T00:12:27;30.60;;;18.33;;
7557;SDS011;3820;51.098;13.716;2023-02-10T00:14:53;33.73;;;18.80;;
7557;SDS011;3820;51.098;13.716;2023-02-10T00:17:20;29.57;;;16.87;;
7557;SDS011;3820;51.098;13.716;2023-02-10T00:19:48;31.97;;;17.97;;
7557;SDS011;3820;51.098;13.716;2023-02-10T00:22:14;28.03;;;17.30;;
7557;SDS011;3820;51.098;13.716;2023-02-10T00:24:43;31.93;;;17.23;;
7557;SDS011;3820;51.098;13.716;2023-02-10T00:27:10;30.73;;;17.10;;
7557;SDS011;3820;51.098;13.716;2023-02-10T00:29:37;27.17;;;16.17;;
7557;SDS011;3820;51.098;13.716;2023-02-10T00:32:05;26.43;;;15.90;;
7557;SDS011;3820;51.098;13.716;2023-02-10T00:34:31;30.63;;;16.93;;
7557;SDS011;3820;51.098;13.716;2023-02-10T00:36:58;31.17;;;16.90;;
7557;SDS011;3820;51.098;13.716;2023-02-10T00:39:25;27.93;;;16.43;;
7557;SDS011;3820;51.098;13.716;2023-02-10T00:41:53;29.37;;;17.17;;
7557;SDS011;3820;51.098;13.716;2023-02-10T00:44:20;28.63;;;16.53;;
7557;SDS011;3820;51.098;13.716;2023-02-10T00:46:47;29.27;;;16.43;;
7557;SDS011;3820;51.098;13.716;2023-02-10T00:49:14;26.83;;;16.20;;
7557;SDS011;3820;51.098;13.716;2023-02-10T00:51:40;29.10;;;16.77;;
7557;SDS011;3820;51.098;13.716;2023-02-10T00:54:10;27.23;;;15.50;;
7557;SDS011;3820;51.098;13.716;2023-02-10T00:56:39;29.20;;;15.73;;
7557;SDS011;3820;51.098;13.716;2023-02-10T00:59:06;28.27;;;16.33;;
7557;SDS011;3820;51.098;13.716;2023-02-10T01:01:33;30.33;;;16.23;;
7557;SDS011;3820;51.098;13.716;2023-02-10T01:04:00;27.73;;;15.90;;
7557;SDS011;3820;51.098;13.716;2023-02-10T01:06:27;26.60;;;15.63;;
7557;SDS011;3820;51.098;13.716;2023-02-10T01:08:53;28.90;;;16.33;;
7557;SDS011;3820;51.098;13.716;2023-02-10T01:11:20;27.30;;;16.13;;
7557;SDS011;3820;51.098;13.716;2023-02-10T01:13:47;29.80;;;16.30;;
7557;SDS011;3820;51.098;13.716;2023-02-10T01:16:14;27.63;;;16.00;;
7557;SDS011;3820;51.098;13.716;2023-02-10T01:18:43;26.37;;;15.93;;
7557;SDS011;3820;51.098;13.716;2023-02-10T01:21:13;30.33;;;16.53;;
7557;SDS011;3820;51.098;13.716;2023-02-10T01:23:41;26.97;;;15.37;;
7557;SDS011;3820;51.098;13.716;2023-02-10T01:26:08;25.00;;;15.47;;
7557;SDS011;3820;51.098;13.716;2023-02-10T01:28:36;26.77;;;15.10;;
7557;SDS011;3820;51.098;13.716;2023-02-10T01:31:04;27.87;;;15.93;;
7557;SDS011;3820;51.098;13.716;2023-02-10T01:33:33;26.07;;;15.37;;
7557;SDS011;3820;51.098;13.716;2023-02-10T01:36:08;23.67;;;15.37;;
7557;SDS011;3820;51.098;13.716;2023-02-10T01:38:36;28.27;;;15.43;;
7557;SDS011;3820;51.098;13.716;2023-02-10T01:41:03;25.87;;;15.53;;
7557;SDS011;3820;51.098;13.716;2023-02-10T01:43:31;26.27;;;15.57;;
7557;SDS011;3820;51.098;13.716;2023-02-10T01:45:58;26.60;;;16.17;;
7557;SDS011;3820;51.098;13.716;2023-02-10T01:48:25;28.10;;;15.43;;
7557;SDS011;3820;51.098;13.716;2023-02-10T01:51:01;29.40;;;16.57;;
7557;SDS011;3820;51.098;13.716;2023-02-10T01:53:31;23.93;;;14.23;;
7557;SDS011;3820;51.098;13.716;2023-02-10T01:55:59;27.23;;;15.90;;
7557;SDS011;3820;51.098;13.716;2023-02-10T01:58:27;28.50;;;15.87;;
7557;SDS011;3820;51.098;13.716;2023-02-10T02:00:56;27.33;;;16.00;;
7557;SDS011;3820;51.098;13.716;2023-02-10T02:03:22;28.40;;;15.83;;
7557;SDS011;3820;51.098;13.716;2023-02-10T02:05:49;26.70;;;16.03;;
7557;SDS011;3820;51.098;13.716;2023-02-10T02:08:17;29.70;;;15.67;;
7557;SDS011;3820;51.098;13.716;2023-02-10T02:19:23;26.70;;;15.43;;
7557;SDS011;3820;51.098;13.716;2023-02-10T02:27:17;32.87;;;16.33;;
7557;SDS011;3820;51.098;13.716;2023-02-10T02:33:10;29.20;;;16.03;;
7557;SDS011;3820;51.098;13.716;2023-02-10T02:35:43;26.90;;;15.20;;
7557;SDS011;3820;51.098;13.716;2023-02-10T02:38:12;28.33;;;15.90;;
7557;SDS011;3820;51.098;13.716;2023-02-10T02:40:39;26.83;;;15.07;;
7557;SDS011;3820;51.098;13.716;2023-02-10T02:43:07;29.23;;;16.67;;
7557;SDS011;3820;51.098;13.716;2023-02-10T02:45:50;27.03;;;15.83;;
7557;SDS011;3820;51.098;13.716;2023-02-10T02:51:53;28.40;;;15.73;;
7557;SDS011;3820;51.098;13.716;2023-02-10T02:54:14;25.40;;;15.00;;
7557;SDS011;3820;51.098;13.716;2023-02-10T02:56:47;28.00;;;15.20;;
7557;SDS011;3820;51.098;13.716;2023-02-10T02:59:41;28.17;;;15.57;;
7557;SDS011;3820;51.098;13.716;2023-02-10T03:02:15;27.67;;;16.30;;
7557;SDS011;3820;51.098;13.716;2023-02-10T03:04:45;25.50;;;15.23;;
7557;SDS011;3820;51.098;13.716;2023-02-10T03:07:12;30.03;;;16.10;;
7557;SDS011;3820;51.098;13.716;2023-02-10T03:09:39;28.40;;;16.00;;
7557;SDS011;3820;51.098;13.716;2023-02-10T03:12:06;28.77;;;15.77;;
7557;SDS011;3820;51.098;13.716;2023-02-10T03:14:34;29.83;;;16.17;;
7557;SDS011;3820;51.098;13.716;2023-02-10T03:19:38;28.00;;;14.97;;
7557;SDS011;3820;51.098;13.716;2023-02-10T03:22:05;26.33;;;15.23;;
7557;SDS011;3820;51.098;13.716;2023-02-10T03:24:31;27.73;;;16.10;;
7557;SDS011;3820;51.098;13.716;2023-02-10T03:26:58;28.47;;;15.70;;
7557;SDS011;3820;51.098;13.716;2023-02-10T03:29:24;29.13;;;16.70;;
7557;SDS011;3820;51.098;13.716;2023-02-10T03:31:51;28.23;;;16.50;;
7557;SDS011;3820;51.098;13.716;2023-02-10T03:34:18;29.17;;;16.77;;
7557;SDS011;3820;51.098;13.716;2023-02-10T03:36:44;28.63;;;15.63;;
7557;SDS011;3820;51.098;13.716;2023-02-10T03:39:11;27.47;;;16.07;;
7557;SDS011;3820;51.098;13.716;2023-02-10T03:41:38;29.37;;;16.90;;
7557;SDS011;3820;51.098;13.716;2023-02-10T03:44:05;28.13;;;16.80;;
7557;SDS011;3820;51.098;13.716;2023-02-10T03:46:32;31.40;;;17.00;;
7557;SDS011;3820;51.098;13.716;2023-02-10T03:48:59;29.07;;;18.13;;
7557;SDS011;3820;51.098;13.716;2023-02-10T03:51:25;28.00;;;16.57;;
7557;SDS011;3820;51.098;13.716;2023-02-10T03:53:52;30.67;;;17.37;;
7557;SDS011;3820;51.098;13.716;2023-02-10T03:56:19;33.07;;;17.53;;
7557;SDS011;3820;51.098;13.716;2023-02-10T03:58:46;28.13;;;16.90;;
7557;SDS011;3820;51.098;13.716;2023-02-10T04:01:13;30.60;;;17.57;;
7557;SDS011;3820;51.098;13.716;2023-02-10T04:03:42;28.53;;;16.63;;
7557;SDS011;3820;51.098;13.716;2023-02-10T04:06:09;29.93;;;17.33;;
7557;SDS011;3820;51.098;13.716;2023-02-10T04:11:09;29.70;;;17.13;;
7557;SDS011;3820;51.098;13.716;2023-02-10T04:13:36;31.07;;;17.30;;
7557;SDS011;3820;51.098;13.716;2023-02-10T04:16:07;29.77;;;17.50;;
7557;SDS011;3820;51.098;13.716;2023-02-10T04:18:37;30.37;;;17.40;;
7557;SDS011;3820;51.098;13.716;2023-02-10T04:21:05;28.47;;;16.67;;
7557;SDS011;3820;51.098;13.716;2023-02-10T04:23:33;32.63;;;17.37;;
7557;SDS011;3820;51.098;13.716;2023-02-10T04:26:00;29.50;;;17.37;;
7557;SDS011;3820;51.098;13.716;2023-02-10T04:28:27;31.67;;;16.83;;
7557;SDS011;3820;51.098;13.716;2023-02-10T04:30:54;30.40;;;19.00;;
7557;SDS011;3820;51.098;13.716;2023-02-10T04:33:22;28.03;;;17.13;;
7557;SDS011;3820;51.098;13.716;2023-02-10T04:35:51;31.80;;;17.67;;
7557;SDS011;3820;51.098;13.716;2023-02-10T04:38:19;30.70;;;18.23;;
7557;SDS011;3820;51.098;13.716;2023-02-10T04:40:47;31.87;;;17.83;;
7557;SDS011;3820;51.098;13.716;2023-02-10T04:43:14;35.47;;;20.00;;
7557;SDS011;3820;51.098;13.716;2023-02-10T04:45:40;39.00;;;20.30;;
7557;SDS011;3820;51.098;13.716;2023-02-10T04:48:07;39.07;;;21.00;;
7557;SDS011;3820;51.098;13.716;2023-02-10T04:50:35;34.10;;;20.70;;
7557;SDS011;3820;51.098;13.716;2023-02-10T04:53:03;37.33;;;21.80;;
7557;SDS011;3820;51.098;13.716;2023-02-10T04:55:30;39.63;;;22.73;;
7557;SDS011;3820;51.098;13.716;2023-02-10T04:57:57;40.40;;;22.87;;
7557;SDS011;3820;51.098;13.716;2023-02-10T05:00:24;39.17;;;23.17;;
7557;SDS011;3820;51.098;13.716;2023-02-10T05:02:51;39.30;;;22.43;;
7557;SDS011;3820;51.098;13.716;2023-02-10T05:05:17;41.47;;;23.80;;
7557;SDS011;3820;51.098;13.716;2023-02-10T05:07:44;38.07;;;23.40;;
7557;SDS011;3820;51.098;13.716;2023-02-10T05:10:11;43.17;;;24.67;;
7557;SDS011;3820;51.098;13.716;2023-02-10T05:12:37;43.43;;;23.93;;
7557;SDS011;3820;51.098;13.716;2023-02-10T05:15:04;42.70;;;24.60;;
7557;SDS011;3820;51.098;13.716;2023-02-10T05:17:30;41.97;;;24.53;;
7557;SDS011;3820;51.098;13.716;2023-02-10T05:19:58;43.03;;;24.43;;
7557;SDS011;3820;51.098;13.716;2023-02-10T05:22:24;41.40;;;25.07;;
7557;SDS011;3820;51.098;13.716;2023-02-10T05:24:56;40.30;;;24.83;;
7557;SDS011;3820;51.098;13.716;2023-02-10T05:27:26;40.33;;;23.87;;
7557;SDS011;3820;51.098;13.716;2023-02-10T05:29:52;42.30;;;24.17;;
7557;SDS011;3820;51.098;13.716;2023-02-10T05:32:19;41.53;;;24.70;;
7557;SDS011;3820;51.098;13.716;2023-02-10T05:34:46;44.43;;;25.27;;
7557;SDS011;3820;51.098;13.716;2023-02-10T05:37:12;44.63;;;25.10;;
7557;SDS011;3820;51.098;13.716;2023-02-10T05:39:38;42.83;;;25.07;;
7557;SDS011;3820;51.098;13.716;2023-02-10T05:42:06;43.93;;;25.50;;
7557;SDS011;3820;51.098;13.716;2023-02-10T05:44:32;41.80;;;24.37;;
7557;SDS011;3820;51.098;13.716;2023-02-10T05:46:59;45.70;;;25.87;;
7557;SDS011;3820;51.098;13.716;2023-02-10T05:49:25;42.43;;;25.27;;
7557;SDS011;3820;51.098;13.716;2023-02-10T05:51:52;48.60;;;25.87;;
7557;SDS011;3820;51.098;13.716;2023-02-10T05:54:19;44.47;;;25.97;;
7557;SDS011;3820;51.098;13.716;2023-02-10T05:56:46;46.37;;;25.20;;
7557;SDS011;3820;51.098;13.716;2023-02-10T05:59:12;47.60;;;26.40;;
7557;SDS011;3820;51.098;13.716;2023-02-10T06:01:41;46.73;;;26.13;;
7557;SDS011;3820;51.098;13.716;2023-02-10T06:04:08;41.63;;;24.90;;
7557;SDS011;3820;51.098;13.716;2023-02-10T06:06:35;44.50;;;25.23;;
7557;SDS011;3820;51.098;13.716;2023-02-10T06:09:02;44.83;;;26.53;;
7557;SDS011;3820;51.098;13.716;2023-02-10T06:11:29;47.50;;;25.77;;
7557;SDS011;3820;51.098;13.716;2023-02-10T06:13:55;44.57;;;26.53;;
7557;SDS011;3820;51.098;13.716;2023-02-10T06:16:22;45.50;;;26.63;;
7557;SDS011;3820;51.098;13.716;2023-02-10T06:18:48;44.83;;;26.67;;
7557;SDS011;3820;51.098;13.716;2023-02-10T06:21:15;48.33;;;25.87;;
7557;SDS011;3820;51.098;13.716;2023-02-10T06:23:42;48.67;;;26.87;;
7557;SDS011;3820;51.098;13.716;2023-02-10T06:26:09;46.00;;;26.63;;
7557;SDS011;3820;51.098;13.716;2023-02-10T06:28:35;50.47;;;27.80;;
7557;SDS011;3820;51.098;13.716;2023-02-10T06:31:02;47.70;;;27.37;;
7557;SDS011;3820;51.098;13.716;2023-02-10T06:33:29;44.53;;;27.23;;
7557;SDS011;3820;51.098;13.716;2023-02-10T06:35:56;47.90;;;27.93;;
7557;SDS011;3820;51.098;13.716;2023-02-10T06:38:22;47.80;;;27.83;;
7557;SDS011;3820;51.098;13.716;2023-02-10T06:40:49;49.17;;;27.77;;
7557;SDS011;3820;51.098;13.716;2023-02-10T06:43:15;49.03;;;27.43;;
7557;SDS011;3820;51.098;13.716;2023-02-10T06:45:42;50.23;;;29.10;;
7557;SDS011;3820;51.098;13.716;2023-02-10T06:48:08;48.33;;;28.77;;
7557;SDS011;3820;51.098;13.716;2023-02-10T06:50:35;54.03;;;29.23;;
7557;SDS011;3820;51.098;13.716;2023-02-10T06:53:02;50.07;;;29.27;;
7557;SDS011;3820;51.098;13.716;2023-02-10T06:55:28;46.80;;;27.97;;
7557;SDS011;3820;51.098;13.716;2023-02-10T06:57:57;52.80;;;28.57;;
7557;SDS011;3820;51.098;13.716;2023-02-10T07:00:25;48.43;;;28.33;;
7557;SDS011;3820;51.098;13.716;2023-02-10T07:02:52;47.27;;;27.63;;
7557;SDS011;3820;51.098;13.716;2023-02-10T07:05:18;48.07;;;28.83;;
7557;SDS011;3820;51.098;13.716;2023-02-10T07:07:45;49.93;;;29.20;;
7557;SDS011;3820;51.098;13.716;2023-02-10T07:10:12;50.20;;;29.27;;
7557;SDS011;3820;51.098;13.716;2023-02-10T07:12:38;50.07;;;29.30;;
7557;SDS011;3820;51.098;13.716;2023-02-10T07:15:05;50.57;;;30.33;;
7557;SDS011;3820;51.098;13.716;2023-02-10T07:17:33;49.67;;;30.30;;
7557;SDS011;3820;51.098;13.716;2023-02-10T07:19:59;53.97;;;31.97;;
7557;SDS011;3820;51.098;13.716;2023-02-10T07:22:26;49.37;;;30.47;;
7557;SDS011;3820;51.098;13.716;2023-02-10T07:24:52;51.10;;;30.37;;
7557;SDS011;3820;51.098;13.716;2023-02-10T07:27:19;50.37;;;30.30;;
7557;SDS011;3820;51.098;13.716;2023-02-10T07:29:46;51.90;;;30.53;;
7557;SDS011;3820;51.098;13.716;2023-02-10T07:32:13;53.60;;;30.80;;
7557;SDS011;3820;51.098;13.716;2023-02-10T07:34:39;52.00;;;30.80;;
7557;SDS011;3820;51.098;13.716;2023-02-10T07:37:07;56.40;;;32.70;;
7557;SDS011;3820;51.098;13.716;2023-02-10T07:39:34;54.80;;;31.63;;
7557;SDS011;3820;51.098;13.716;2023-02-10T07:42:01;53.83;;;32.67;;
7557;SDS011;3820;51.098;13.716;2023-02-10T07:44:28;52.97;;;31.33;;
7557;SDS011;3820;51.098;13.716;2023-02-10T07:46:54;52.23;;;31.37;;
7557;SDS011;3820;51.098;13.716;2023-02-10T07:49:20;56.87;;;31.43;;
7557;SDS011;3820;51.098;13.716;2023-02-10T07:51:47;55.73;;;32.27;;
7557;SDS011;3820;51.098;13.716;2023-02-10T07:54:13;54.43;;;32.63;;
7557;SDS011;3820;51.098;13.716;2023-02-10T07:56:40;55.83;;;32.40;;
7557;SDS011;3820;51.098;13.716;2023-02-10T07:59:07;53.83;;;31.73;;
7557;SDS011;3820;51.098;13.716;2023-02-10T08:01:34;55.47;;;32.47;;
7557;SDS011;3820;51.098;13.716;2023-02-10T08:04:04;60.37;;;34.83;;
7557;SDS011;3820;51.098;13.716;2023-02-10T08:06:30;65.47;;;39.20;;
7557;SDS011;3820;51.098;13.716;2023-02-10T08:08:57;62.57;;;38.53;;
7557;SDS011;3820;51.098;13.716;2023-02-10T08:11:24;63.27;;;37.10;;
7557;SDS011;3820;51.098;13.716;2023-02-10T08:13:50;59.50;;;35.43;;
7557;SDS011;3820;51.098;13.716;2023-02-10T08:16:17;58.20;;;35.33;;
7557;SDS011;3820;51.098;13.716;2023-02-10T08:18:44;57.20;;;34.77;;
7557;SDS011;3820;51.098;13.716;2023-02-10T08:21:10;57.30;;;32.93;;
7557;SDS011;3820;51.098;13.716;2023-02-10T08:23:37;57.03;;;33.47;;
7557;SDS011;3820;51.098;13.716;2023-02-10T08:26:04;58.27;;;33.40;;
7557;SDS011;3820;51.098;13.716;2023-02-10T08:28:32;64.43;;;34.50;;
7557;SDS011;3820;51.098;13.716;2023-02-10T08:31:00;68.73;;;36.03;;
7557;SDS011;3820;51.098;13.716;2023-02-10T08:33:29;61.63;;;35.07;;
7557;SDS011;3820;51.098;13.716;2023-02-10T08:36:11;66.20;;;35.27;;
7557;SDS011;3820;51.098;13.716;2023-02-10T08:41:10;69.13;;;36.50;;
7557;SDS011;3820;51.098;13.716;2023-02-10T08:43:37;64.60;;;35.67;;
7557;SDS011;3820;51.098;13.716;2023-02-10T08:46:03;65.80;;;35.77;;
7557;SDS011;3820;51.098;13.716;2023-02-10T08:48:34;63.30;;;34.33;;
7557;SDS011;3820;51.098;13.716;2023-02-10T08:51:04;61.77;;;34.20;;
7557;SDS011;3820;51.098;13.716;2023-02-10T08:53:35;61.87;;;35.20;;
7557;SDS011;3820;51.098;13.716;2023-02-10T08:56:03;65.23;;;35.60;;
7557;SDS011;3820;51.098;13.716;2023-02-10T08:58:36;66.40;;;35.10;;
7557;SDS011;3820;51.098;13.716;2023-02-10T09:01:20;60.00;;;33.93;;
7557;SDS011;3820;51.098;13.716;2023-02-10T09:03:51;55.33;;;33.33;;
7557;SDS011;3820;51.098;13.716;2023-02-10T09:06:20;56.40;;;33.90;;
7557;SDS011;3820;51.098;13.716;2023-02-10T09:08:50;60.80;;;33.97;;
7557;SDS011;3820;51.098;13.716;2023-02-10T09:11:20;66.13;;;35.10;;
7557;SDS011;3820;51.098;13.716;2023-02-10T09:13:50;63.70;;;35.03;;
7557;SDS011;3820;51.098;13.716;2023-02-10T09:16:17;70.27;;;35.37;;
7557;SDS011;3820;51.098;13.716;2023-02-10T09:18:43;62.67;;;35.47;;
7557;SDS011;3820;51.098;13.716;2023-02-10T09:21:10;64.90;;;36.17;;
7557;SDS011;3820;51.098;13.716;2023-02-10T09:23:37;65.87;;;34.33;;
7557;SDS011;3820;51.098;13.716;2023-02-10T09:26:04;60.07;;;34.23;;
7557;SDS011;3820;51.098;13.716;2023-02-10T09:28:31;62.33;;;35.60;;
7557;SDS011;3820;51.098;13.716;2023-02-10T09:30:57;60.10;;;34.37;;
7557;SDS011;3820;51.098;13.716;2023-02-10T09:33:24;62.70;;;35.23;;
7557;SDS011;3820;51.098;13.716;2023-02-10T09:35:51;64.53;;;35.80;;
7557;SDS011;3820;51.098;13.716;2023-02-10T09:38:17;66.77;;;37.27;;
7557;SDS011;3820;51.098;13.716;2023-02-10T09:40:49;66.27;;;36.37;;
7557;SDS011;3820;51.098;13.716;2023-02-10T09:43:47;65.53;;;35.77;;
7557;SDS011;3820;51.098;13.716;2023-02-10T09:46:30;66.90;;;36.10;;
7557;SDS011;3820;51.098;13.716;2023-02-10T09:54:39;67.73;;;36.77;;
7557;SDS011;3820;51.098;13.716;2023-02-10T09:57:19;68.73;;;35.60;;
7557;SDS011;3820;51.098;13.716;2023-02-10T09:59:49;66.93;;;35.73;;
7557;SDS011;3820;51.098;13.716;2023-02-10T10:02:20;64.70;;;36.30;;
7557;SDS011;3820;51.098;13.716;2023-02-10T10:04:51;67.10;;;36.70;;
7557;SDS011;3820;51.098;13.716;2023-02-10T10:07:23;65.87;;;36.00;;
7557;SDS011;3820;51.098;13.716;2023-02-10T10:10:36;68.00;;;36.40;;
7557;SDS011;3820;51.098;13.716;2023-02-10T10:12:55;72.63;;;37.13;;
7557;SDS011;3820;51.098;13.716;2023-02-10T10:15:22;67.73;;;36.33;;
7557;SDS011;3820;51.098;13.716;2023-02-10T10:20:41;69.53;;;35.87;;
7557;SDS011;3820;51.098;13.716;2023-02-10T10:32:02;78.20;;;41.57;;
7557;SDS011;3820;51.098;13.716;2023-02-10T10:34:48;67.23;;;36.97;;
7557;SDS011;3820;51.098;13.716;2023-02-10T10:37:23;71.93;;;37.37;;
7557;SDS011;3820;51.098;13.716;2023-02-10T10:39:54;74.07;;;37.60;;
7557;SDS011;3820;51.098;13.716;2023-02-10T10:42:39;72.07;;;37.13;;
7557;SDS011;3820;51.098;13.716;2023-02-10T10:45:22;68.90;;;36.27;;
7557;SDS011;3820;51.098;13.716;2023-02-10T10:47:54;72.73;;;36.40;;
7557;SDS011;3820;51.098;13.716;2023-02-10T10:50:24;69.87;;;36.50;;
7557;SDS011;3820;51.098;13.716;2023-02-10T10:52:52;80.17;;;38.87;;
7557;SDS011;3820;51.098;13.716;2023-02-10T10:55:24;71.13;;;37.57;;
7557;SDS011;3820;51.098;13.716;2023-02-10T10:57:57;68.00;;;36.50;;
7557;SDS011;3820;51.098;13.716;2023-02-10T11:00:27;72.73;;;36.30;;
7557;SDS011;3820;51.098;13.716;2023-02-10T11:02:58;72.53;;;37.27;;
7557;SDS011;3820;51.098;13.716;2023-02-10T11:05:31;75.67;;;38.37;;
7557;SDS011;3820;51.098;13.716;2023-02-10T11:08:00;74.20;;;38.87;;
7557;SDS011;3820;51.098;13.716;2023-02-10T11:10:29;73.27;;;36.70;;
7557;SDS011;3820;51.098;13.716;2023-02-10T11:13:19;68.77;;;36.10;;
7557;SDS011;3820;51.098;13.716;2023-02-10T11:15:47;61.90;;;33.17;;
7557;SDS011;3820;51.098;13.716;2023-02-10T11:18:18;63.33;;;33.67;;
7557;SDS011;3820;51.098;13.716;2023-02-10T11:20:54;64.97;;;34.27;;
7557;SDS011;3820;51.098;13.716;2023-02-10T11:23:26;66.10;;;33.43;;
7557;SDS011;3820;51.098;13.716;2023-02-10T11:26:04;69.53;;;34.93;;
7557;SDS011;3820;51.098;13.716;2023-02-10T11:28:34;64.17;;;33.60;;
7557;SDS011;3820;51.098;13.716;2023-02-10T11:31:05;70.23;;;34.30;;
7557;SDS011;3820;51.098;13.716;2023-02-10T11:33:38;66.67;;;34.47;;
7557;SDS011;3820;51.098;13.716;2023-02-10T11:36:06;67.00;;;34.93;;
7557;SDS011;3820;51.098;13.716;2023-02-10T11:38:35;65.50;;;33.93;;
7557;SDS011;3820;51.098;13.716;2023-02-10T11:41:04;63.93;;;34.30;;
7557;SDS011;3820;51.098;13.716;2023-02-10T11:43:42;65.23;;;34.40;;
7557;SDS011;3820;51.098;13.716;2023-02-10T11:46:17;69.03;;;34.97;;
7557;SDS011;3820;51.098;13.716;2023-02-10T11:48:57;67.93;;;36.07;;
7557;SDS011;3820;51.098;13.716;2023-02-10T11:51:26;67.23;;;34.23;;
7557;SDS011;3820;51.098;13.716;2023-02-10T11:53:53;67.37;;;34.23;;
7557;SDS011;3820;51.098;13.716;2023-02-10T11:56:22;64.53;;;34.20;;
7557;SDS011;3820;51.098;13.716;2023-02-10T12:10:17;68.83;;;35.50;;
7557;SDS011;3820;51.098;13.716;2023-02-10T12:12:57;65.90;;;34.33;;
7557;SDS011;3820;51.098;13.716;2023-02-10T12:16:08;65.17;;;34.07;;
7557;SDS011;3820;51.098;13.716;2023-02-10T12:24:32;62.57;;;33.40;;
7557;SDS011;3820;51.098;13.716;2023-02-10T12:27:30;65.83;;;35.40;;
7557;SDS011;3820;51.098;13.716;2023-02-10T12:30:15;62.87;;;32.60;;
7557;SDS011;3820;51.098;13.716;2023-02-10T12:32:54;61.10;;;34.27;;
7557;SDS011;3820;51.098;13.716;2023-02-10T12:35:26;63.27;;;34.73;;
7557;SDS011;3820;51.098;13.716;2023-02-10T12:44:41;60.67;;;33.43;;
7557;SDS011;3820;51.098;13.716;2023-02-10T12:47:46;64.07;;;33.60;;
7557;SDS011;3820;51.098;13.716;2023-02-10T12:53:06;64.20;;;33.43;;
7557;SDS011;3820;51.098;13.716;2023-02-10T12:55:54;64.17;;;32.17;;
7557;SDS011;3820;51.098;13.716;2023-02-10T12:58:30;59.87;;;32.33;;
7557;SDS011;3820;51.098;13.716;2023-02-10T13:01:08;62.63;;;33.07;;
7557;SDS011;3820;51.098;13.716;2023-02-10T13:03:43;64.07;;;34.30;;
7557;SDS011;3820;51.098;13.716;2023-02-10T13:08:39;64.93;;;33.90;;
7557;SDS011;3820;51.098;13.716;2023-02-10T13:11:17;60.83;;;32.93;;
7557;SDS011;3820;51.098;13.716;2023-02-10T13:13:48;63.20;;;32.90;;
7557;SDS011;3820;51.098;13.716;2023-02-10T13:16:18;62.70;;;33.27;;
7557;SDS011;3820;51.098;13.716;2023-02-10T13:18:52;59.80;;;31.97;;
7557;SDS011;3820;51.098;13.716;2023-02-10T13:21:28;59.23;;;32.03;;
7557;SDS011;3820;51.098;13.716;2023-02-10T13:34:55;58.63;;;30.10;;
7557;SDS011;3820;51.098;13.716;2023-02-10T13:37:30;61.60;;;31.33;;
7557;SDS011;3820;51.098;13.716;2023-02-10T13:40:13;60.63;;;30.07;;
7557;SDS011;3820;51.098;13.716;2023-02-10T13:42:53;59.17;;;30.33;;
7557;SDS011;3820;51.098;13.716;2023-02-10T13:45:26;57.07;;;29.60;;
7557;SDS011;3820;51.098;13.716;2023-02-10T13:48:06;53.93;;;28.90;;
7557;SDS011;3820;51.098;13.716;2023-02-10T13:50:48;57.87;;;30.30;;
7557;SDS011;3820;51.098;13.716;2023-02-10T13:56:03;52.57;;;27.70;;
7557;SDS011;3820;51.098;13.716;2023-02-10T13:58:32;52.37;;;27.17;;
7557;SDS011;3820;51.098;13.716;2023-02-10T14:01:00;45.73;;;25.07;;
7557;SDS011;3820;51.098;13.716;2023-02-10T14:03:31;51.30;;;25.43;;
7557;SDS011;3820;51.098;13.716;2023-02-10T14:11:05;47.30;;;25.93;;
7557;SDS011;3820;51.098;13.716;2023-02-10T14:13:33;47.23;;;24.03;;
7557;SDS011;3820;51.098;13.716;2023-02-10T14:19:03;43.57;;;23.30;;
7557;SDS011;3820;51.098;13.716;2023-02-10T14:21:39;41.57;;;21.90;;
7557;SDS011;3820;51.098;13.716;2023-02-10T14:24:14;43.10;;;22.67;;
7557;SDS011;3820;51.098;13.716;2023-02-10T14:26:52;43.87;;;21.90;;
7557;SDS011;3820;51.098;13.716;2023-02-10T14:29:19;44.80;;;21.83;;
7557;SDS011;3820;51.098;13.716;2023-02-10T14:31:55;45.37;;;23.30;;
7557;SDS011;3820;51.098;13.716;2023-02-10T14:34:27;45.33;;;23.07;;
7557;SDS011;3820;51.098;13.716;2023-02-10T14:39:25;42.43;;;22.50;;
7557;SDS011;3820;51.098;13.716;2023-02-10T14:41:59;41.87;;;21.17;;
7557;SDS011;3820;51.098;13.716;2023-02-10T14:44:40;47.87;;;23.43;;
7557;SDS011;3820;51.098;13.716;2023-02-10T14:47:43;44.10;;;22.77;;
7557;SDS011;3820;51.098;13.716;2023-02-10T14:50:18;41.23;;;22.00;;
7557;SDS011;3820;51.098;13.716;2023-02-10T14:52:55;40.60;;;21.93;;
7557;SDS011;3820;51.098;13.716;2023-02-10T14:55:23;40.70;;;22.90;;
7557;SDS011;3820;51.098;13.716;2023-02-10T14:57:55;43.33;;;23.43;;
7557;SDS011;3820;51.098;13.716;2023-02-10T15:00:32;39.90;;;21.93;;
7557;SDS011;3820;51.098;13.716;2023-02-10T15:02:59;42.03;;;22.57;;
7557;SDS011;3820;51.098;13.716;2023-02-10T15:05:30;45.20;;;23.20;;
7557;SDS011;3820;51.098;13.716;2023-02-10T15:08:00;45.07;;;23.87;;
7557;SDS011;3820;51.098;13.716;2023-02-10T15:10:38;44.00;;;22.83;;
7557;SDS011;3820;51.098;13.716;2023-02-10T15:13:13;40.77;;;22.20;;
7557;SDS011;3820;51.098;13.716;2023-02-10T15:15:41;41.23;;;22.83;;
7557;SDS011;3820;51.098;13.716;2023-02-10T15:18:13;43.80;;;22.70;;
7557;SDS011;3820;51.098;13.716;2023-02-10T15:21:00;47.17;;;23.90;;
7557;SDS011;3820;51.098;13.716;2023-02-10T15:23:28;42.43;;;23.40;;
7557;SDS011;3820;51.098;13.716;2023-02-10T15:26:22;41.73;;;24.13;;
7557;SDS011;3820;51.098;13.716;2023-02-10T15:28:56;45.23;;;24.50;;
7557;SDS011;3820;51.098;13.716;2023-02-10T15:31:26;43.83;;;24.77;;
7557;SDS011;3820;51.098;13.716;2023-02-10T15:33:55;42.47;;;23.00;;
7557;SDS011;3820;51.098;13.716;2023-02-10T15:36:24;45.97;;;25.73;;
7557;SDS011;3820;51.098;13.716;2023-02-10T15:39:05;45.20;;;24.53;;
7557;SDS011;3820;51.098;13.716;2023-02-10T15:46:45;47.93;;;24.50;;
7557;SDS011;3820;51.098;13.716;2023-02-10T15:49:20;45.43;;;24.47;;
7557;SDS011;3820;51.098;13.716;2023-02-10T15:51:52;40.83;;;22.83;;
7557;SDS011;3820;51.098;13.716;2023-02-10T15:54:23;47.50;;;24.43;;
7557;SDS011;3820;51.098;13.716;2023-02-10T15:56:56;44.80;;;23.97;;
7557;SDS011;3820;51.098;13.716;2023-02-10T15:59:24;43.17;;;23.93;;
7557;SDS011;3820;51.098;13.716;2023-02-10T16:01:54;45.33;;;24.77;;
7557;SDS011;3820;51.098;13.716;2023-02-10T16:04:25;46.50;;;24.50;;
7557;SDS011;3820;51.098;13.716;2023-02-10T16:10:20;41.57;;;23.87;;
7557;SDS011;3820;51.098;13.716;2023-02-10T16:12:49;46.00;;;25.10;;
7557;SDS011;3820;51.098;13.716;2023-02-10T16:15:17;46.47;;;25.00;;
7557;SDS011;3820;51.098;13.716;2023-02-10T16:17:47;42.20;;;23.10;;
7557;SDS011;3820;51.098;13.716;2023-02-10T16:23:32;41.27;;;23.27;;
7557;SDS011;3820;51.098;13.716;2023-02-10T16:25:58;48.97;;;25.83;;
7557;SDS011;3820;51.098;13.716;2023-02-10T16:28:25;43.70;;;24.77;;
7557;SDS011;3820;51.098;13.716;2023-02-10T16:30:52;45.33;;;24.63;;
7557;SDS011;3820;51.098;13.716;2023-02-10T16:33:19;45.73;;;24.33;;
7557;SDS011;3820;51.098;13.716;2023-02-10T16:35:46;46.07;;;25.47;;
7557;SDS011;3820;51.098;13.716;2023-02-10T16:38:12;44.60;;;24.83;;
7557;SDS011;3820;51.098;13.716;2023-02-10T16:48:44;41.80;;;23.83;;